Latest Weather Observations for Outer Harbor (Black Pole)

IDS60901

Issued at 11:51 pm CST Tuesday 31 May 2016 (issued every 10 minutes, with the page automatically refreshed every 10 minutes)

About weather observations | Map of Adelaide area stations | Latest observations for Adelaide area | Other Formats
Station Details ID: 023052 Name: BLACK POLE Lat: -34.73 Lon: 138.47 Height: 6.27 m
Data from the previous 72 hours. | See also: Recent months for locations in South Australia
Date/Time
CST
Tmp

°C
App
Tmp
°C
Dew
Point
°C
Rel
Hum
%
Delta-T

°C
Wind Press
QNH
hPa
Press
MSL
hPa
Rain
since
9 am
mm
Dir
 
Spd
km/h
Gust
km/h
Spd
kts
Gust
kts
31/11:30pm - - - - - ENE 19 22 10 12 - - -
31/11:00pm - - - - - NE 17 19 9 10 - - -
31/10:30pm - - - - - ENE 15 19 8 10 - - -
31/10:00pm - - - - - NE 19 20 10 11 - - -
31/09:30pm - - - - - NE 17 19 9 10 - - -
31/09:00pm - - - - - ENE 19 22 10 12 - - -
31/08:30pm - - - - - NE 20 24 11 13 - - -
31/08:00pm - - - - - NE 19 24 10 13 - - -
31/07:30pm - - - - - ENE 15 19 8 10 - - -
31/07:00pm - - - - - NE 11 17 6 9 - - -
31/06:30pm - - - - - ENE 15 17 8 9 - - -
31/06:00pm - - - - - ENE 17 20 9 11 - - -
31/05:30pm - - - - - ENE 15 19 8 10 - - -
31/05:00pm - - - - - NE 11 17 6 9 - - -
31/04:30pm - - - - - ENE 11 13 6 7 - - -
31/04:00pm - - - - - NE 13 15 7 8 - - -
31/03:30pm - - - - - NE 9 9 5 5 - - -
31/03:00pm - - - - - NE 9 11 5 6 - - -
31/02:30pm - - - - - NNE 13 19 7 10 - - -
31/02:00pm - - - - - N 7 15 4 8 - - -
31/01:30pm - - - - - NE 7 11 4 6 - - -
31/01:00pm - - - - - ENE 19 20 10 11 - - -
31/12:30pm - - - - - ENE 17 19 9 10 - - -
31/12:00pm - - - - - NE 17 20 9 11 - - -
31/11:30am - - - - - NE 19 20 10 11 - - -
31/11:00am - - - - - N 15 22 8 12 - - -
31/10:30am - - - - - NNE 17 22 9 12 - - -
31/10:00am - - - - - NE 22 28 12 15 - - -
31/09:30am - - - - - NE 26 32 14 17 - - -
31/09:00am - - - - - NE 22 28 12 15 - - -
31/08:30am - - - - - NE 24 28 13 15 - - -
31/08:00am - - - - - NE 20 24 11 13 - - -
31/07:30am - - - - - NE 20 24 11 13 - - -
31/07:00am - - - - - NE 24 28 13 15 - - -
31/06:30am - - - - - NE 24 28 13 15 - - -
31/06:00am - - - - - NE 24 28 13 15 - - -
31/05:30am - - - - - NE 20 26 11 14 - - -
31/05:00am - - - - - NE 22 24 12 13 - - -
31/04:30am - - - - - NE 20 24 11 13 - - -
31/04:00am - - - - - NE 22 28 12 15 - - -
31/03:30am - - - - - NE 24 30 13 16 - - -
31/03:00am - - - - - NE 24 30 13 16 - - -
31/02:30am - - - - - NE 24 28 13 15 - - -
31/02:00am - - - - - NE 24 28 13 15 - - -
31/01:30am - - - - - NE 22 26 12 14 - - -
31/01:00am - - - - - NE 22 26 12 14 - - -
31/12:30am - - - - - NE 20 24 11 13 - - -
31/12:00am - - - - - NE 20 24 11 13 - - -
 
Date/Time
CST
Tmp

°C
App
Tmp
°C
Dew
Point
°C
Rel
Hum
%
Delta-T

°C
Wind Press
QNH
hPa
Press
MSL
hPa
Rain
since
9 am
mm
Dir
 
Spd
km/h
Gust
km/h
Spd
kts
Gust
kts
30/11:30pm - - - - - NE 20 24 11 13 - - -
30/11:00pm - - - - - NE 22 26 12 14 - - -
30/10:30pm - - - - - NE 24 28 13 15 - - -
30/10:00pm - - - - - NE 24 30 13 16 - - -
30/09:30pm - - - - - NE 22 26 12 14 - - -
30/09:00pm - - - - - NE 20 22 11 12 - - -
30/08:30pm - - - - - NE 22 26 12 14 - - -
30/08:00pm - - - - - NE 20 24 11 13 - - -
30/07:30pm - - - - - NNE 17 20 9 11 - - -
30/07:00pm - - - - - NNE 15 20 8 11 - - -
30/06:30pm - - - - - NE 19 22 10 12 - - -
30/06:00pm - - - - - NE 24 28 13 15 - - -
30/05:30pm - - - - - NE 24 30 13 16 - - -
30/05:00pm - - - - - NE 28 32 15 17 - - -
30/04:30pm - - - - - NE 19 22 10 12 - - -
30/04:00pm - - - - - ENE 24 33 13 18 - - -
30/03:30pm - - - - - ENE 24 28 13 15 - - -
30/03:00pm - - - - - NNE 15 24 8 13 - - -
30/02:30pm - - - - - NW 11 15 6 8 - - -
30/02:00pm - - - - - NNE 15 20 8 11 - - -
30/01:30pm - - - - - NE 24 30 13 16 - - -
30/01:00pm - - - - - NNE 24 28 13 15 - - -
30/12:30pm - - - - - NNE 24 35 13 19 - - -
30/12:00pm - - - - - NE 24 30 13 16 - - -
30/11:30am - - - - - NE 22 28 12 15 - - -
30/11:00am - - - - - NNE 24 33 13 18 - - -
30/10:30am - - - - - NE 26 32 14 17 - - -
30/10:00am - - - - - NE 22 28 12 15 - - -
30/09:30am - - - - - NNE 20 24 11 13 - - -
30/09:00am - - - - - NE 28 35 15 19 - - -
30/08:30am - - - - - ENE 28 32 15 17 - - -
30/08:00am - - - - - ENE 26 32 14 17 - - -
30/07:30am - - - - - NE 28 33 15 18 - - -
30/07:00am - - - - - NE 26 35 14 19 - - -
30/06:30am - - - - - NE 24 32 13 17 - - -
30/06:00am - - - - - NE 24 28 13 15 - - -
30/05:30am - - - - - NE 28 35 15 19 - - -
30/05:00am - - - - - NE 24 28 13 15 - - -
30/04:30am - - - - - ENE 24 28 13 15 - - -
30/04:00am - - - - - ENE 24 28 13 15 - - -
30/03:30am - - - - - NE 24 28 13 15 - - -
30/03:00am - - - - - NE 24 28 13 15 - - -
30/02:30am - - - - - NE 28 32 15 17 - - -
30/02:00am - - - - - NE 28 32 15 17 - - -
30/01:30am - - - - - NE 30 37 16 20 - - -
30/01:00am - - - - - NE 30 35 16 19 - - -
30/12:30am - - - - - NE 22 28 12 15 - - -
30/12:00am - - - - - NE 20 24 11 13 - - -
 
Date/Time
CST
Tmp

°C
App
Tmp
°C
Dew
Point
°C
Rel
Hum
%
Delta-T

°C
Wind Press
QNH
hPa
Press
MSL
hPa
Rain
since
9 am
mm
Dir
 
Spd
km/h
Gust
km/h
Spd
kts
Gust
kts
29/11:30pm - - - - - NE 22 28 12 15 - - -
29/11:00pm - - - - - NE 22 28 12 15 - - -
29/10:30pm - - - - - NE 22 26 12 14 - - -
29/10:00pm - - - - - NE 20 24 11 13 - - -
29/09:30pm - - - - - NE 20 24 11 13 - - -
29/09:00pm - - - - - NE 22 26 12 14 - - -
29/08:30pm - - - - - NE 22 26 12 14 - - -
29/08:00pm - - - - - NE 20 24 11 13 - - -
29/07:30pm - - - - - NE 20 24 11 13 - - -
29/07:00pm - - - - - NE 22 28 12 15 - - -
29/06:30pm - - - - - ENE 20 24 11 13 - - -
29/06:00pm - - - - - ENE 19 24 10 13 - - -
29/05:30pm - - - - - ENE 19 24 10 13 - - -
29/05:00pm - - - - - ENE 20 26 11 14 - - -
29/04:30pm - - - - - ENE 20 24 11 13 - - -
29/04:00pm - - - - - ENE 17 20 9 11 - - -
29/03:30pm - - - - - ENE 17 19 9 10 - - -
29/03:00pm - - - - - NE 11 15 6 8 - - -
29/02:30pm - - - - - NE 15 19 8 10 - - -
29/02:00pm - - - - - NE 17 22 9 12 - - -
29/01:30pm - - - - - NNE 19 22 10 12 - - -
29/01:00pm - - - - - N 19 24 10 13 - - -
29/12:30pm - - - - - NNE 19 24 10 13 - - -
29/12:00pm - - - - - NE 20 24 11 13 - - -
29/11:30am - - - - - NE 22 28 12 15 - - -
29/11:00am - - - - - NNE 22 26 12 14 - - -
29/10:30am - - - - - NE 22 26 12 14 - - -
29/10:00am - - - - - NNE 24 30 13 16 - - -
29/09:30am - - - - - NE 24 30 13 16 - - -
29/09:00am - - - - - NE 22 28 12 15 - - -
29/08:30am - - - - - NE 24 28 13 15 - - -
29/08:00am - - - - - NE 20 24 11 13 - - -
29/07:30am - - - - - NE 20 24 11 13 - - -
29/07:00am - - - - - NE 19 22 10 12 - - -
29/06:30am - - - - - NE 17 19 9 10 - - -
29/06:00am - - - - - NE 19 22 10 12 - - -
29/05:30am - - - - - ENE 19 22 10 12 - - -
29/05:00am - - - - - NE 20 24 11 13 - - -
29/04:30am - - - - - NE 15 19 8 10 - - -
29/04:00am - - - - - NE 13 17 7 9 - - -
29/03:30am - - - - - NE 11 15 6 8 - - -
29/03:00am - - - - - NE 11 13 6 7 - - -
29/02:30am - - - - - NE 11 13 6 7 - - -
29/02:00am - - - - - NE 11 15 6 8 - - -
29/01:30am - - - - - NE 11 15 6 8 - - -
29/01:00am - - - - - NE 11 13 6 7 - - -
29/12:30am - - - - - ENE 13 17 7 9 - - -
29/12:00am - - - - - ENE 19 20 10 11 - - -

Latest Capital City Observations: Canberra | Sydney | Melbourne | Brisbane | Adelaide | Perth | Hobart | Darwin

Other Formats:

Comma delimited format used in spreadsheet applications
http://www.bom.gov.au/fwo/IDS60901/IDS60901.95675.axf

JavaScript Object Notation format (JSON) in row-major order
http://www.bom.gov.au/fwo/IDS60901/IDS60901.95675.json